Time;durP1;ratioP1;P1;durP2;ratioP2;P2;SDS_P1;SDS_P2;PMS_P1;PMS_P2;Temp;Humidity;BMP_temperature;BMP_pressure;BME280_temperature;BME280_humidity;BME280_pressure;Samples;Min_cycle;Max_cycle;Signal;HPM_P1;HPM_P2
2024/01/20 00:01:20;;;;;;;0.00;0.00;;;-1.10;99.90;;;;;;5090541;28;20172;-60
2024/01/20 00:03:46;;;;;;;0.00;0.00;;;-1.10;99.90;;;;;;5090654;28;20299;-60
2024/01/20 00:06:11;;;;;;;0.00;0.00;;;-1.20;99.90;;;;;;5090806;28;20299;-60
2024/01/20 00:08:37;;;;;;;0.00;0.00;;;-1.10;99.90;;;;;;5090774;28;20179;-60
2024/01/20 00:11:02;;;;;;;0.00;0.00;;;-1.10;99.90;;;;;;5089693;28;20579;-59
2024/01/20 00:13:28;;;;;;;0.00;0.00;;;-1.10;99.90;;;;;;5089404;28;20679;-59
2024/01/20 00:15:53;;;;;;;0.20;0.20;;;-1.20;99.90;;;;;;5090530;28;20204;-59
2024/01/20 00:18:19;;;;;;;0.00;0.00;;;-1.20;99.90;;;;;;5089591;28;20565;-59
2024/01/20 00:20:45;;;;;;;0.00;0.00;;;-1.20;99.90;;;;;;5090502;28;20176;-59
2024/01/20 00:23:12;;;;;;;0.10;0.10;;;-1.20;99.90;;;;;;5090711;28;20203;-61
2024/01/20 00:25:37;;;;;;;0.00;0.00;;;-1.20;99.90;;;;;;5090549;28;20266;-60
2024/01/20 00:28:03;;;;;;;0.00;0.00;;;-1.20;99.90;;;;;;5090487;28;20191;-60
2024/01/20 00:30:29;;;;;;;0.00;0.00;;;-1.20;99.90;;;;;;5090686;28;20184;-60
2024/01/20 00:32:55;;;;;;;0.00;0.00;;;-1.10;99.90;;;;;;5090675;28;20183;-60
2024/01/20 00:35:20;;;;;;;0.00;0.00;;;-1.10;99.90;;;;;;5090442;28;20188;-60
2024/01/20 00:37:46;;;;;;;0.00;0.00;;;-1.20;99.90;;;;;;5090478;28;20563;-60
2024/01/20 00:40:12;;;;;;;0.00;0.00;;;-1.20;99.90;;;;;;5090223;28;20231;-60
2024/01/20 00:42:37;;;;;;;0.00;0.00;;;-1.20;99.90;;;;;;5090663;28;20187;-60
2024/01/20 00:45:04;;;;;;;0.00;0.00;;;-1.20;99.90;;;;;;5090449;28;20212;-60
2024/01/20 00:47:30;;;;;;;0.00;0.00;;;-1.40;99.90;;;;;;5090493;28;20172;-60
2024/01/20 00:49:56;;;;;;;0.00;0.00;;;-1.40;99.90;;;;;;5090362;28;20261;-60
2024/01/20 00:52:21;;;;;;;0.10;0.10;;;-1.50;99.90;;;;;;5090341;28;20236;-60
2024/01/20 00:54:47;;;;;;;0.00;0.00;;;-1.50;99.90;;;;;;5090258;28;20179;-60
2024/01/20 00:57:12;;;;;;;0.00;0.00;;;-1.50;99.90;;;;;;5090506;28;20194;-60
2024/01/20 00:59:38;;;;;;;0.00;0.00;;;-1.60;99.90;;;;;;5091054;28;20267;-60
2024/01/20 01:02:04;;;;;;;0.03;0.03;;;-1.60;99.90;;;;;;5093995;28;20216;-60
2024/01/20 01:04:29;;;;;;;0.00;0.00;;;-1.60;99.90;;;;;;5094326;28;20264;-60
2024/01/20 01:06:55;;;;;;;0.13;0.13;;;-1.50;99.90;;;;;;5094051;28;20285;-60
2024/01/20 01:09:20;;;;;;;0.00;0.00;;;-1.50;99.90;;;;;;5093965;28;20275;-60
2024/01/20 01:11:46;;;;;;;0.00;0.00;;;-1.40;99.90;;;;;;5094085;28;20259;-60
2024/01/20 01:14:12;;;;;;;0.00;0.00;;;-1.40;99.90;;;;;;5093827;28;20286;-60
2024/01/20 01:16:37;;;;;;;0.10;0.10;;;-1.40;99.90;;;;;;5093995;28;20176;-60
2024/01/20 01:19:03;;;;;;;0.40;0.40;;;-1.40;99.90;;;;;;5093777;28;20186;-60
2024/01/20 01:21:29;;;;;;;0.00;0.00;;;-1.40;99.90;;;;;;5094137;28;20263;-59
2024/01/20 01:23:54;;;;;;;0.00;0.00;;;-1.40;99.90;;;;;;5093741;28;20318;-60
2024/01/20 01:26:20;;;;;;;0.00;0.00;;;-1.30;99.90;;;;;;5093794;28;20230;-59
2024/01/20 01:28:46;;;;;;;0.93;0.20;;;-1.30;99.90;;;;;;5093944;28;20186;-60
2024/01/20 01:31:11;;;;;;;0.00;0.00;;;-1.30;99.90;;;;;;5093288;28;20674;-60
2024/01/20 01:33:37;;;;;;;0.00;0.00;;;-1.30;99.90;;;;;;5093365;28;21012;-60
2024/01/20 01:36:04;;;;;;;0.00;0.00;;;-1.30;99.90;;;;;;5093227;28;20203;-60
2024/01/20 01:38:29;;;;;;;0.00;0.00;;;-1.40;99.90;;;;;;5093335;28;20266;-60
2024/01/20 01:40:55;;;;;;;0.00;0.00;;;-1.40;99.90;;;;;;5092528;28;20358;-60
2024/01/20 01:43:20;;;;;;;0.00;0.00;;;-1.40;99.90;;;;;;5093234;28;20261;-60
2024/01/20 01:45:46;;;;;;;0.20;0.20;;;-1.50;99.90;;;;;;5093427;28;20189;-60
2024/01/20 01:48:11;;;;;;;0.00;0.00;;;-1.50;99.90;;;;;;5076807;28;20190;-60
2024/01/20 01:50:37;;;;;;;0.03;0.03;;;-1.50;99.90;;;;;;5093170;28;20215;-60
2024/01/20 01:53:05;;;;;;;0.00;0.00;;;-1.50;99.90;;;;;;5092991;28;20180;-60
2024/01/20 01:55:31;;;;;;;0.00;0.00;;;-1.60;99.90;;;;;;5092800;28;20301;-61
2024/01/20 01:57:59;;;;;;;0.00;0.00;;;-1.60;99.90;;;;;;5092504;28;20187;-60
2024/01/20 02:00:25;;;;;;;0.00;0.00;;;-1.70;99.90;;;;;;5092864;28;20268;-61
2024/01/20 02:02:51;;;;;;;0.10;0.10;;;-1.80;99.90;;;;;;5092946;28;20215;-60
2024/01/20 02:05:16;;;;;;;0.00;0.00;;;-1.80;99.90;;;;;;5093043;28;20574;-60
2024/01/20 02:07:43;;;;;;;0.00;0.00;;;-1.80;99.90;;;;;;5092889;28;20513;-60
2024/01/20 02:10:10;;;;;;;0.27;0.27;;;-1.90;99.90;;;;;;5092465;28;20180;-60
2024/01/20 02:12:36;;;;;;;0.30;0.20;;;-1.90;99.90;;;;;;5092824;28;20191;-60
2024/01/20 02:15:02;;;;;;;0.00;0.00;;;-2.00;99.90;;;;;;5092974;28;20172;-60
2024/01/20 02:17:28;;;;;;;0.00;0.00;;;-2.00;99.90;;;;;;5091528;28;20659;-60
2024/01/20 02:19:53;;;;;;;0.10;0.10;;;-2.00;99.90;;;;;;5092898;28;20184;-61
2024/01/20 02:22:19;;;;;;;0.00;0.00;;;-2.00;99.90;;;;;;5092242;28;20184;-60
2024/01/20 02:24:49;;;;;;;0.00;0.00;;;-2.10;99.90;;;;;;5092365;28;20212;-61
2024/01/20 02:27:16;;;;;;;0.00;0.00;;;-2.10;99.90;;;;;;5092691;28;20176;-61
2024/01/20 02:29:41;;;;;;;0.27;0.27;;;-2.10;99.90;;;;;;5092390;28;20566;-61
2024/01/20 02:32:07;;;;;;;0.37;0.37;;;-2.20;99.90;;;;;;5092184;28;20179;-61
2024/01/20 02:34:33;;;;;;;0.10;0.10;;;-2.20;99.90;;;;;;5091918;28;20853;-61
2024/01/20 02:36:59;;;;;;;0.10;0.10;;;-2.20;99.90;;;;;;5125206;27;20213;-61
2024/01/20 02:39:24;;;;;;;0.00;0.00;;;-2.30;99.90;;;;;;5092686;28;20219;-61
2024/01/20 02:41:50;;;;;;;0.10;0.10;;;-2.30;99.90;;;;;;5092334;28;20180;-61
2024/01/20 02:44:15;;;;;;;0.00;0.00;;;-2.30;99.90;;;;;;5092308;28;20722;-61
2024/01/20 02:46:41;;;;;;;0.00;0.00;;;-2.30;99.90;;;;;;5091746;28;20592;-61
2024/01/20 02:49:06;;;;;;;0.10;0.10;;;-2.40;99.90;;;;;;5092179;28;20185;-61
2024/01/20 02:51:32;;;;;;;0.00;0.00;;;-2.40;99.90;;;;;;5091921;28;20179;-60
2024/01/20 02:53:58;;;;;;;0.00;0.00;;;-2.50;99.90;;;;;;5092235;28;20168;-61
2024/01/20 02:56:24;;;;;;;0.00;0.00;;;-2.50;99.90;;;;;;5091502;28;20253;-60
2024/01/20 02:58:50;;;;;;;0.13;0.13;;;-2.60;99.90;;;;;;5091810;28;20288;-61
2024/01/20 03:01:16;;;;;;;0.60;0.60;;;-2.60;99.90;;;;;;5091944;28;20169;-60
2024/01/20 03:03:41;;;;;;;0.47;0.47;;;-2.60;99.90;;;;;;5091672;28;20212;-60
2024/01/20 03:06:07;;;;;;;0.10;0.10;;;-2.70;99.90;;;;;;5091541;28;20233;-61
2024/01/20 03:08:33;;;;;;;0.00;0.00;;;-2.70;99.90;;;;;;5091560;28;20202;-60
2024/01/20 03:10:59;;;;;;;0.00;0.00;;;-2.70;99.90;;;;;;5091396;28;20581;-60
2024/01/20 03:13:24;;;;;;;0.00;0.00;;;-2.70;99.90;;;;;;5091677;28;20211;-60
2024/01/20 03:15:49;;;;;;;0.00;0.00;;;-2.80;99.90;;;;;;5091521;28;20180;-60
2024/01/20 03:18:15;;;;;;;0.00;0.00;;;-2.90;99.90;;;;;;5091547;28;20270;-60
2024/01/20 03:20:41;;;;;;;0.10;0.10;;;-2.90;99.90;;;;;;5091201;28;20172;-60
2024/01/20 03:23:06;;;;;;;0.07;0.07;;;-2.90;99.90;;;;;;5090884;28;20180;-60
2024/01/20 03:25:32;;;;;;;0.20;0.20;;;-3.00;99.90;;;;;;5091269;28;20313;-60
2024/01/20 03:27:57;;;;;;;0.10;0.10;;;-3.10;99.90;;;;;;5091414;28;20183;-61
2024/01/20 03:30:23;;;;;;;0.00;0.00;;;-3.10;99.90;;;;;;5090642;28;20619;-60
2024/01/20 03:32:50;;;;;;;0.00;0.00;;;-3.20;99.90;;;;;;5091268;28;20172;-60
2024/01/20 03:35:16;;;;;;;0.00;0.00;;;-3.20;99.90;;;;;;5091323;28;20182;-60
2024/01/20 03:37:41;;;;;;;0.10;0.10;;;-3.30;99.90;;;;;;5091016;28;20529;-60
2024/01/20 03:40:08;;;;;;;0.00;0.00;;;-3.30;99.90;;;;;;5090539;28;20281;-61
2024/01/20 03:42:33;;;;;;;0.00;0.00;;;-3.30;99.90;;;;;;5090817;28;20180;-60
2024/01/20 03:44:59;;;;;;;0.00;0.00;;;-3.40;99.90;;;;;;5091068;28;20760;-60
2024/01/20 03:47:24;;;;;;;0.00;0.00;;;-3.40;99.90;;;;;;5091145;28;20307;-60
2024/01/20 03:49:50;;;;;;;0.00;0.00;;;-3.40;99.90;;;;;;5089833;28;20570;-61
2024/01/20 03:52:15;;;;;;;0.00;0.00;;;-3.40;99.90;;;;;;5090796;28;20226;-60
2024/01/20 03:54:41;;;;;;;0.23;0.23;;;-3.40;99.90;;;;;;5090392;28;20172;-60
2024/01/20 03:57:07;;;;;;;0.00;0.00;;;-3.40;99.90;;;;;;5090664;28;20253;-60
2024/01/20 03:59:33;;;;;;;0.00;0.00;;;-3.40;99.90;;;;;;5090980;28;20172;-60
2024/01/20 04:01:59;;;;;;;0.00;0.00;;;-3.50;99.90;;;;;;5090964;28;20267;-61
2024/01/20 04:04:24;;;;;;;0.00;0.00;;;-3.50;99.90;;;;;;5081675;28;20260;-60
2024/01/20 04:06:50;;;;;;;0.00;0.00;;;-3.50;99.90;;;;;;5090714;28;20718;-61
2024/01/20 04:09:15;;;;;;;0.00;0.00;;;-3.60;99.90;;;;;;5091045;28;20180;-60
2024/01/20 04:11:41;;;;;;;0.00;0.00;;;-3.60;99.90;;;;;;5089591;28;20180;-60
2024/01/20 04:14:06;;;;;;;0.00;0.00;;;-3.60;99.90;;;;;;5090344;28;20164;-60
2024/01/20 04:16:32;;;;;;;0.00;0.00;;;-3.60;99.90;;;;;;5090638;28;20528;-60
2024/01/20 04:18:57;;;;;;;0.00;0.00;;;-3.70;99.90;;;;;;5090842;28;20168;-60
2024/01/20 04:21:23;;;;;;;0.00;0.00;;;-3.70;99.90;;;;;;5090799;28;20180;-60
2024/01/20 04:23:49;;;;;;;0.10;0.10;;;-3.70;99.90;;;;;;5090568;28;20506;-59
2024/01/20 04:26:16;;;;;;;0.00;0.00;;;-3.70;99.90;;;;;;5090733;28;20179;-60
2024/01/20 04:28:41;;;;;;;0.00;0.00;;;-3.70;99.90;;;;;;5090097;28;20184;-60
2024/01/20 04:31:07;;;;;;;0.00;0.00;;;-3.80;99.90;;;;;;5090221;28;20176;-59
2024/01/20 04:33:34;;;;;;;0.03;0.03;;;-3.80;99.90;;;;;;5088989;28;20270;-60
2024/01/20 04:36:01;;;;;;;0.00;0.00;;;-3.80;99.90;;;;;;5094131;28;20182;-59
2024/01/20 04:38:26;;;;;;;0.00;0.00;;;-3.90;99.90;;;;;;5094424;28;20806;-60
2024/01/20 04:40:53;;;;;;;0.40;0.40;;;-3.90;99.90;;;;;;5094354;28;20278;-60
2024/01/20 04:43:19;;;;;;;0.00;0.00;;;-3.90;99.90;;;;;;5094574;28;20218;-59
2024/01/20 04:45:44;;;;;;;0.00;0.00;;;-3.90;99.90;;;;;;5094613;28;20249;-60
2024/01/20 04:48:10;;;;;;;0.00;0.00;;;-3.90;99.90;;;;;;5094748;28;20172;-60
2024/01/20 04:50:35;;;;;;;0.00;0.00;;;-3.90;99.90;;;;;;5094550;28;20709;-59
2024/01/20 04:53:01;;;;;;;0.00;0.00;;;-3.90;99.90;;;;;;5094004;28;20258;-60
2024/01/20 04:55:26;;;;;;;0.10;0.10;;;-3.90;99.90;;;;;;5094290;28;20180;-59
2024/01/20 04:57:52;;;;;;;0.67;0.53;;;-3.90;99.90;;;;;;5093549;28;20319;-60
2024/01/20 05:00:18;;;;;;;0.00;0.00;;;-3.90;99.90;;;;;;5094236;28;20180;-61
2024/01/20 05:02:43;;;;;;;0.00;0.00;;;-3.90;99.90;;;;;;5093450;28;20215;-60
2024/01/20 05:05:09;;;;;;;0.00;0.00;;;-4.00;99.90;;;;;;5093835;28;20223;-60
2024/01/20 05:07:34;;;;;;;0.00;0.00;;;-4.00;99.90;;;;;;5093757;28;20233;-60
2024/01/20 05:10:00;;;;;;;0.20;0.20;;;-4.00;99.90;;;;;;5094146;28;20237;-60
2024/01/20 05:12:26;;;;;;;0.10;0.10;;;-4.00;99.90;;;;;;5093800;28;20271;-60
2024/01/20 05:14:52;;;;;;;0.00;0.00;;;-4.00;99.90;;;;;;5093367;28;20666;-60
2024/01/20 05:17:18;;;;;;;0.00;0.00;;;-4.00;99.90;;;;;;5094038;28;20184;-60
2024/01/20 05:19:43;;;;;;;0.00;0.00;;;-4.10;99.90;;;;;;5093501;28;20188;-60
2024/01/20 05:22:09;;;;;;;0.37;0.37;;;-4.10;99.90;;;;;;5093814;28;20180;-61
2024/01/20 05:24:34;;;;;;;0.00;0.00;;;-4.10;99.90;;;;;;5093604;28;20211;-61
2024/01/20 05:27:00;;;;;;;0.00;0.00;;;-4.10;99.90;;;;;;5093362;28;20233;-61
2024/01/20 05:29:26;;;;;;;0.00;0.00;;;-4.20;99.90;;;;;;5093885;28;20257;-60
2024/01/20 05:31:51;;;;;;;0.00;0.00;;;-4.20;99.90;;;;;;5092323;28;20707;-60
2024/01/20 05:34:17;;;;;;;0.57;0.33;;;-4.20;99.90;;;;;;5093428;28;20182;-60
2024/01/20 05:36:42;;;;;;;0.00;0.00;;;-4.20;99.90;;;;;;5093019;28;20186;-60
2024/01/20 05:39:08;;;;;;;0.00;0.00;;;-4.20;99.90;;;;;;5092987;28;20207;-60
2024/01/20 05:41:33;;;;;;;0.00;0.00;;;-4.20;99.90;;;;;;5093279;28;20215;-60
2024/01/20 05:43:59;;;;;;;0.00;0.00;;;-4.30;99.90;;;;;;5093252;28;20306;-60
2024/01/20 05:46:24;;;;;;;0.73;0.67;;;-4.30;99.90;;;;;;5092656;28;20658;-60
2024/01/20 05:48:50;;;;;;;0.00;0.00;;;-4.30;99.90;;;;;;5093117;28;20225;-59
2024/01/20 05:51:15;;;;;;;0.00;0.00;;;-4.30;99.90;;;;;;5093510;28;20174;-59
2024/01/20 05:53:41;;;;;;;0.00;0.00;;;-4.30;99.90;;;;;;5091603;28;20183;-60
2024/01/20 05:56:07;;;;;;;0.00;0.00;;;-4.40;99.90;;;;;;5092856;28;20184;-60
2024/01/20 05:58:32;;;;;;;0.10;0.10;;;-4.40;99.90;;;;;;5092842;28;20366;-60
2024/01/20 06:00:58;;;;;;;0.00;0.00;;;-4.40;99.90;;;;;;5092996;28;20631;-60
2024/01/20 06:03:25;;;;;;;0.10;0.10;;;-4.40;99.90;;;;;;5093099;28;20352;-60
2024/01/20 06:05:51;;;;;;;0.10;0.10;;;-4.40;99.90;;;;;;5093002;28;20203;-61
2024/01/20 06:08:17;;;;;;;0.00;0.00;;;-4.50;99.90;;;;;;5093192;28;20176;-61
2024/01/20 06:10:43;;;;;;;0.00;0.00;;;-4.50;99.90;;;;;;5092747;28;20188;-60
2024/01/20 06:13:08;;;;;;;0.00;0.00;;;-4.50;99.90;;;;;;5092960;28;20210;-61
2024/01/20 06:15:34;;;;;;;0.00;0.00;;;-4.50;99.90;;;;;;5093002;28;20710;-60
2024/01/20 06:17:59;;;;;;;0.00;0.00;;;-4.50;99.90;;;;;;5092873;28;20176;-61
2024/01/20 06:20:26;;;;;;;0.00;0.00;;;-4.50;99.90;;;;;;5092848;28;20195;-61
2024/01/20 06:22:51;;;;;;;0.23;0.23;;;-4.50;99.90;;;;;;5092614;28;20624;-60
2024/01/20 06:25:17;;;;;;;0.33;0.33;;;-4.60;99.90;;;;;;5092564;28;20256;-61
2024/01/20 06:27:42;;;;;;;0.40;0.40;;;-4.60;99.90;;;;;;5092461;28;20172;-60
2024/01/20 06:30:08;;;;;;;0.10;0.10;;;-4.70;99.90;;;;;;5092583;28;20176;-60
2024/01/20 06:32:34;;;;;;;0.00;0.00;;;-4.70;99.90;;;;;;5092600;28;20202;-60
2024/01/20 06:34:59;;;;;;;0.00;0.00;;;-4.70;99.90;;;;;;5091231;28;20254;-60
2024/01/20 06:37:25;;;;;;;0.00;0.00;;;-4.80;99.90;;;;;;5092330;28;20519;-61
2024/01/20 06:39:50;;;;;;;0.00;0.00;;;-4.80;99.90;;;;;;5091952;28;20296;-60
2024/01/20 06:42:16;;;;;;;0.13;0.13;;;-4.90;99.90;;;;;;5092286;28;20203;-60
2024/01/20 06:44:41;;;;;;;0.00;0.00;;;-5.00;99.90;;;;;;5091731;28;20743;-61
2024/01/20 06:47:07;;;;;;;0.00;0.00;;;-5.00;99.90;;;;;;5092105;28;20164;-61
2024/01/20 06:49:33;;;;;;;0.00;0.00;;;-5.10;99.90;;;;;;5090424;28;20176;-60
2024/01/20 06:51:58;;;;;;;0.00;0.00;;;-5.10;99.90;;;;;;5092364;28;20203;-60
2024/01/20 06:54:24;;;;;;;0.00;0.00;;;-5.10;99.90;;;;;;5092005;28;20542;-60
2024/01/20 06:56:49;;;;;;;0.00;0.00;;;-5.10;99.90;;;;;;5091332;28;20180;-60
2024/01/20 06:59:15;;;;;;;0.10;0.10;;;-5.20;99.90;;;;;;5091708;28;20187;-62
2024/01/20 07:01:40;;;;;;;0.00;0.00;;;-5.20;99.90;;;;;;5091951;28;20192;-62
2024/01/20 07:04:06;;;;;;;0.43;0.43;;;-5.20;99.90;;;;;;5090470;28;20604;-62
2024/01/20 07:06:31;;;;;;;0.00;0.00;;;-5.20;99.90;;;;;;5092213;28;20789;-61
2024/01/20 07:08:57;;;;;;;0.00;0.00;;;-5.30;99.90;;;;;;5091571;28;20176;-63
2024/01/20 07:11:25;;;;;;;0.00;0.00;;;-5.30;99.90;;;;;;5091354;28;20184;-60
2024/01/20 07:13:50;;;;;;;0.10;0.10;;;-5.30;99.90;;;;;;5091804;28;20176;-61
2024/01/20 07:16:19;;;;;;;0.00;0.00;;;-5.30;99.90;;;;;;5091901;28;20515;-61
2024/01/20 07:18:44;;;;;;;0.00;0.00;;;-5.20;99.90;;;;;;5090171;28;20184;-60
2024/01/20 07:21:10;;;;;;;0.10;0.10;;;-5.20;99.90;;;;;;5091657;28;20176;-60
2024/01/20 07:23:35;;;;;;;0.20;0.20;;;-5.20;99.90;;;;;;5091517;28;20332;-61
2024/01/20 07:26:01;;;;;;;0.00;0.00;;;-5.20;99.90;;;;;;5090702;28;20196;-60
2024/01/20 07:28:27;;;;;;;0.00;0.00;;;-5.20;99.90;;;;;;5091457;28;20188;-61
2024/01/20 07:30:52;;;;;;;0.23;0.23;;;-5.20;99.90;;;;;;5091394;28;20669;-60
2024/01/20 07:33:18;;;;;;;0.00;0.00;;;-5.20;99.90;;;;;;5090678;28;20619;-60
2024/01/20 07:35:43;;;;;;;0.03;0.03;;;-5.20;99.90;;;;;;5091173;28;20685;-59
2024/01/20 07:38:09;;;;;;;0.00;0.00;;;-5.10;99.90;;;;;;5091297;28;20204;-59
2024/01/20 07:40:35;;;;;;;0.00;0.00;;;-5.10;99.90;;;;;;5091067;28;20228;-63
2024/01/20 07:43:01;;;;;;;0.17;0.17;;;;;;;;;;5090264;28;20195;-59
2024/01/20 07:45:31;;;;;;;0.10;0.10;;;-5.00;99.90;;;;;;5091138;28;20190;-60
2024/01/20 07:48:00;;;;;;;0.43;0.43;;;-5.00;99.90;;;;;;5091215;28;20200;-59
2024/01/20 07:50:26;;;;;;;0.20;0.20;;;-5.00;99.90;;;;;;5091131;28;20190;-60
2024/01/20 07:52:52;;;;;;;0.00;0.00;;;-5.00;99.90;;;;;;5091175;28;20172;-59
2024/01/20 07:55:18;;;;;;;0.00;0.00;;;-4.90;99.90;;;;;;5090419;28;20185;-59
2024/01/20 07:57:43;;;;;;;0.00;0.00;;;-4.90;99.90;;;;;;5090487;28;20552;-64
2024/01/20 08:00:13;;;;;;;0.00;0.00;;;-4.80;99.90;;;;;;5090671;28;20195;-58
2024/01/20 08:02:39;;;;;;;0.00;0.00;;;-4.80;99.90;;;;;;5090922;28;20267;-60
2024/01/20 08:05:05;;;;;;;0.10;0.10;;;-4.80;99.90;;;;;;5090546;28;20253;-60
2024/01/20 08:07:31;;;;;;;0.00;0.00;;;-4.70;99.90;;;;;;5090864;28;20650;-60
2024/01/20 08:09:57;;;;;;;0.00;0.00;;;-4.70;99.90;;;;;;5090839;28;20183;-60
2024/01/20 08:12:23;;;;;;;0.00;0.00;;;-4.60;99.90;;;;;;5089993;28;20541;-60
2024/01/20 08:14:48;;;;;;;0.00;0.00;;;-4.50;99.90;;;;;;5090663;28;20229;-60
2024/01/20 08:17:14;;;;;;;0.00;0.00;;;-4.50;99.90;;;;;;5090593;28;20646;-60
2024/01/20 08:19:40;;;;;;;0.00;0.00;;;-4.40;99.90;;;;;;5090667;28;20183;-60
2024/01/20 08:22:07;;;;;;;0.00;0.00;;;-4.20;99.90;;;;;;5090791;28;20180;-59
2024/01/20 08:24:32;;;;;;;0.00;0.00;;;-4.10;99.90;;;;;;5090418;28;20299;-59
2024/01/20 08:26:58;;;;;;;0.00;0.00;;;-3.90;99.90;;;;;;5090688;28;20326;-59
2024/01/20 08:29:23;;;;;;;0.00;0.00;;;-3.80;99.90;;;;;;5088934;28;20184;-60
2024/01/20 08:31:49;;;;;;;0.00;0.00;;;-3.70;99.90;;;;;;5090680;28;20690;-59
2024/01/20 08:34:14;;;;;;;0.00;0.00;;;-3.50;99.90;;;;;;5090592;28;20200;-59
2024/01/20 08:36:40;;;;;;;0.00;0.00;;;-3.40;99.90;;;;;;5090640;28;20191;-60
2024/01/20 08:39:06;;;;;;;0.00;0.00;;;-3.20;99.90;;;;;;5089771;28;20215;-59
2024/01/20 08:41:32;;;;;;;0.00;0.00;;;-3.10;99.90;;;;;;5090493;28;20237;-60
2024/01/20 08:43:57;;;;;;;0.00;0.00;;;-2.90;99.90;;;;;;5088847;28;20195;-58
2024/01/20 08:46:25;;;;;;;0.00;0.00;;;-2.80;99.90;;;;;;5088969;28;20275;-58
2024/01/20 08:48:50;;;;;;;0.00;0.00;;;-2.60;99.90;;;;;;5090420;28;20223;-58
2024/01/20 08:51:16;;;;;;;0.40;0.40;;;-2.50;99.90;;;;;;5088613;28;20204;-59
2024/01/20 08:53:42;;;;;;;0.00;0.00;;;-2.40;99.90;;;;;;5075951;28;20186;-59
2024/01/20 08:56:07;;;;;;;0.00;0.00;;;-2.30;99.90;;;;;;5090404;28;20176;-59
2024/01/20 08:58:33;;;;;;;0.00;0.00;;;-2.20;99.90;;;;;;5088629;28;20544;-59
2024/01/20 09:00:58;;;;;;;0.17;0.17;;;-2.10;99.90;;;;;;5090529;28;20181;-59
2024/01/20 09:03:25;;;;;;;0.00;0.00;;;-1.90;99.90;;;;;;5090068;28;20212;-59
2024/01/20 09:05:50;;;;;;;0.00;0.00;;;-1.80;99.90;;;;;;5090222;28;20180;-59
2024/01/20 09:08:16;;;;;;;0.00;0.00;;;-1.80;99.90;;;;;;5090371;28;20176;-60
2024/01/20 09:10:41;;;;;;;0.00;0.00;;;-1.70;99.90;;;;;;5090344;28;20195;-60
2024/01/20 09:13:07;;;;;;;0.00;0.00;;;-1.60;99.90;;;;;;5089361;28;20226;-59
2024/01/20 09:15:32;;;;;;;0.00;0.00;;;-1.50;99.90;;;;;;5090101;28;20219;-59
2024/01/20 09:17:58;;;;;;;0.00;0.00;;;-1.40;99.90;;;;;;5090408;28;20184;-59
2024/01/20 09:20:23;;;;;;;0.00;0.00;;;-1.30;99.90;;;;;;5090248;28;20746;-59
2024/01/20 09:22:49;;;;;;;0.00;0.00;;;-1.20;99.90;;;;;;5093869;28;20576;-59
2024/01/20 09:25:16;;;;;;;0.00;0.00;;;-1.20;99.90;;;;;;5093720;28;20220;-59
2024/01/20 09:27:41;;;;;;;0.00;0.00;;;-1.20;99.90;;;;;;5093753;28;20206;-60
2024/01/20 09:30:07;;;;;;;0.00;0.00;;;-1.10;99.90;;;;;;5093997;28;20718;-59
2024/01/20 09:32:33;;;;;;;0.23;0.23;;;-1.10;99.90;;;;;;5092815;28;20267;-59
2024/01/20 09:35:05;;;;;;;0.00;0.00;;;-1.10;99.90;;;;;;5092765;28;20266;-59
2024/01/20 09:37:31;;;;;;;0.00;0.00;;;-1.10;99.90;;;;;;5092613;28;20412;-59
2024/01/20 09:39:57;;;;;;;0.00;0.00;;;-1.00;99.90;;;;;;5093366;28;20782;-59
2024/01/20 09:42:23;;;;;;;0.00;0.00;;;-1.00;99.90;;;;;;5093328;28;20184;-59
2024/01/20 09:44:50;;;;;;;0.00;0.00;;;-0.90;99.90;;;;;;5093369;28;20226;-60
2024/01/20 09:47:16;;;;;;;0.00;0.00;;;-0.80;99.90;;;;;;5092373;28;20176;-60
2024/01/20 09:49:42;;;;;;;0.00;0.00;;;-0.80;99.90;;;;;;5089425;28;20195;-59
2024/01/20 09:52:12;;;;;;;0.00;0.00;;;-0.70;99.90;;;;;;5093091;28;20172;-59
2024/01/20 09:54:56;;;;;;;0.03;0.03;;;-0.70;99.90;;;;;;5093510;28;20645;-59
2024/01/20 09:57:23;;;;;;;0.00;0.00;;;-0.60;99.90;;;;;;5091515;28;20210;-59
2024/01/20 09:59:51;;;;;;;0.00;0.00;;;-0.50;99.90;;;;;;5090993;28;20212;-59
2024/01/20 10:02:18;;;;;;;0.00;0.00;;;-0.40;99.90;;;;;;5089678;28;20201;-59
2024/01/20 10:04:48;;;;;;;0.10;0.10;;;-0.30;99.90;;;;;;5088898;28;20247;-59
2024/01/20 10:07:30;;;;;;;0.00;0.00;;;-0.20;99.90;;;;;;5089746;28;20505;-60
2024/01/20 10:09:56;;;;;;;0.10;0.10;;;-0.20;99.90;;;;;;5089080;28;20192;-59
2024/01/20 10:12:23;;;;;;;0.00;0.00;;;-0.20;99.90;;;;;;5088718;28;20232;-59
2024/01/20 10:14:52;;;;;;;0.23;0.23;;;-0.20;99.90;;;;;;5098475;28;20275;-59
2024/01/20 10:17:18;;;;;;;0.10;0.10;;;-0.20;99.90;;;;;;5093162;28;20223;-60
2024/01/20 10:19:43;;;;;;;0.10;0.10;;;-0.30;99.90;;;;;;5092733;28;20200;-60
2024/01/20 10:22:10;;;;;;;0.00;0.00;;;-0.20;99.90;;;;;;5092466;28;20192;-61
2024/01/20 10:24:56;;;;;;;0.00;0.00;;;-0.10;99.90;;;;;;5092195;28;20570;-61
2024/01/20 10:27:25;;;;;;;0.03;0.03;;;0.10;99.90;;;;;;5092731;28;20218;-61
2024/01/20 10:29:51;;;;;;;0.00;0.00;;;0.60;99.90;;;;;;5093293;28;20206;-61
2024/01/20 10:32:17;;;;;;;0.00;0.00;;;0.90;99.90;;;;;;5092183;28;20765;-61
2024/01/20 10:34:44;;;;;;;0.00;0.00;;;1.20;99.90;;;;;;5093198;28;20214;-61
2024/01/20 10:37:13;;;;;;;0.00;0.00;;;1.50;99.90;;;;;;5093398;28;20172;-61
2024/01/20 10:39:44;;;;;;;0.98;0.52;;;1.70;99.90;;;;;;5092977;28;20281;-61
2024/01/20 10:42:13;;;;;;;0.10;0.10;;;1.70;99.90;;;;;;5093029;28;20195;-61
2024/01/20 10:44:42;;;;;;;0.00;0.00;;;1.70;99.90;;;;;;5092920;28;20212;-61
2024/01/20 10:47:15;;;;;;;0.10;0.10;;;1.50;99.90;;;;;;5093050;28;20236;-60
2024/01/20 10:49:45;;;;;;;0.00;0.00;;;1.30;99.90;;;;;;5092844;28;20267;-60
2024/01/20 10:52:12;;;;;;;0.00;0.00;;;1.10;99.90;;;;;;5092681;28;20176;-60
2024/01/20 10:54:38;;;;;;;0.17;0.17;;;1.00;99.90;;;;;;5092816;28;20781;-60
2024/01/20 10:57:04;;;;;;;0.20;0.20;;;0.90;99.90;;;;;;5092724;28;20180;-60
2024/01/20 10:59:35;;;;;;;0.00;0.00;;;0.80;99.90;;;;;;5092830;28;20187;-60
2024/01/20 11:02:01;;;;;;;0.00;0.00;;;0.80;99.90;;;;;;5092442;28;20183;-60
2024/01/20 11:04:35;;;;;;;0.00;0.00;;;0.80;99.90;;;;;;5092379;28;20229;-60
2024/01/20 11:07:01;;;;;;;0.00;0.00;;;0.90;99.90;;;;;;5092610;28;20190;-60
2024/01/20 11:09:26;;;;;;;0.00;0.00;;;0.90;99.90;;;;;;5092390;28;20267;-60
2024/01/20 11:12:04;;;;;;;0.20;0.20;;;0.90;99.90;;;;;;5092413;28;20172;-60
2024/01/20 11:14:30;;;;;;;0.00;0.00;;;1.00;99.90;;;;;;5092241;28;20176;-61
2024/01/20 11:16:57;;;;;;;0.32;0.32;;;1.00;99.90;;;;;;5092222;28;20225;-60
2024/01/20 11:19:22;;;;;;;0.00;0.00;;;1.20;99.90;;;;;;5092139;28;20168;-61
2024/01/20 11:21:48;;;;;;;0.00;0.00;;;1.30;99.90;;;;;;5092064;28;20260;-61
2024/01/20 11:24:17;;;;;;;0.00;0.00;;;1.30;99.90;;;;;;5092125;28;20224;-61
2024/01/20 11:26:43;;;;;;;0.00;0.00;;;1.40;99.90;;;;;;5091995;28;20180;-61
2024/01/20 11:29:08;;;;;;;0.20;0.20;;;1.40;99.90;;;;;;5092076;28;20639;-60
2024/01/20 11:31:35;;;;;;;0.03;0.03;;;1.50;99.90;;;;;;5092060;28;20707;-60
2024/01/20 11:34:02;;;;;;;0.00;0.00;;;1.60;99.90;;;;;;5091880;28;20255;-60
2024/01/20 11:36:29;;;;;;;0.00;0.00;;;1.70;99.90;;;;;;5091871;28;20172;-60
2024/01/20 11:38:59;;;;;;;0.00;0.00;;;1.80;99.90;;;;;;5091552;28;20721;-60
2024/01/20 11:41:25;;;;;;;0.00;0.00;;;1.80;99.90;;;;;;5091789;28;20183;-60
2024/01/20 11:43:51;;;;;;;0.00;0.00;;;2.00;99.90;;;;;;5091519;28;20199;-61
2024/01/20 11:46:17;;;;;;;0.00;0.00;;;2.00;99.90;;;;;;5091613;28;20198;-61
2024/01/20 11:48:42;;;;;;;0.00;0.00;;;2.10;99.90;;;;;;5091327;28;20176;-60
2024/01/20 11:51:09;;;;;;;0.32;0.32;;;2.10;99.90;;;;;;5091595;28;20247;-61
2024/01/20 11:53:35;;;;;;;0.00;0.00;;;2.10;99.90;;;;;;5091586;28;20206;-61
2024/01/20 11:56:03;;;;;;;0.00;0.00;;;2.10;99.90;;;;;;5091482;28;20168;-61
2024/01/20 11:58:30;;;;;;;0.00;0.00;;;2.10;99.90;;;;;;5091688;28;20175;-61
2024/01/20 12:00:57;;;;;;;0.10;0.10;;;2.10;99.90;;;;;;5091177;28;20251;-61
2024/01/20 12:03:24;;;;;;;0.20;0.20;;;2.10;99.90;;;;;;5091205;28;20317;-61
2024/01/20 12:05:51;;;;;;;0.00;0.00;;;2.10;99.90;;;;;;5091481;28;20176;-61
2024/01/20 12:08:17;;;;;;;0.10;0.10;;;2.00;99.90;;;;;;5091540;28;20180;-61
2024/01/20 12:10:44;;;;;;;0.00;0.00;;;2.00;99.90;;;;;;5091360;28;20176;-61
2024/01/20 12:13:12;;;;;;;0.10;0.10;;;2.00;99.90;;;;;;5091459;28;20179;-61
2024/01/20 12:15:41;;;;;;;0.00;0.00;;;1.90;99.90;;;;;;5091396;28;20168;-61
2024/01/20 12:18:06;;;;;;;0.00;0.00;;;1.90;99.90;;;;;;5091478;28;20172;-62
2024/01/20 12:20:32;;;;;;;0.05;0.05;;;1.90;99.90;;;;;;5091312;28;20598;-61
2024/01/20 12:23:02;;;;;;;0.00;0.00;;;1.90;99.90;;;;;;5091386;28;20214;-61
2024/01/20 12:25:28;;;;;;;0.00;0.00;;;1.90;99.90;;;;;;5091182;28;20307;-61
2024/01/20 12:27:54;;;;;;;0.08;0.08;;;1.90;99.90;;;;;;5091236;28;20255;-61
2024/01/20 12:30:20;;;;;;;0.38;0.38;;;1.90;99.90;;;;;;5091280;28;20747;-61
2024/01/20 12:32:45;;;;;;;0.10;0.10;;;1.90;99.90;;;;;;5089697;28;20176;-61
2024/01/20 12:35:11;;;;;;;0.13;0.13;;;1.90;99.90;;;;;;5091131;28;20183;-62
2024/01/20 12:37:37;;;;;;;0.00;0.00;;;1.90;99.90;;;;;;5091006;28;20684;-61
2024/01/20 12:40:05;;;;;;;0.00;0.00;;;2.00;99.90;;;;;;5090833;28;20694;-62
2024/01/20 12:42:31;;;;;;;0.00;0.00;;;2.00;99.90;;;;;;5091123;28;20206;-62